Time;durP1;ratioP1;P1;durP2;ratioP2;P2;SDS_P1;SDS_P2;PMS_P1;PMS_P2;Temp;Humidity;BMP_temperature;BMP_pressure;BME280_temperature;BME280_humidity;BME280_pressure;Samples;Min_cycle;Max_cycle;Signal;HPM_P1;HPM_P2
2022/06/05 00:02:08;;;;;;;13.33;8.10;;;14.30;99.90;;;;;;4948680;28;20235;-77
2022/06/05 00:05:08;;;;;;;11.87;7.70;;;14.20;99.90;;;;;;4952132;28;20252;-78
2022/06/05 00:08:25;;;;;;;11.77;7.93;;;14.20;99.90;;;;;;4936062;29;20198;-76
2022/06/05 00:11:11;;;;;;;10.63;7.60;;;14.20;99.90;;;;;;4937886;28;20257;-76
2022/06/05 00:13:56;;;;;;;9.03;8.00;;;14.20;99.90;;;;;;4936482;28;20251;-77
2022/06/05 00:16:41;;;;;;;9.30;7.60;;;14.10;99.90;;;;;;4939987;29;20198;-75
2022/06/05 00:19:25;;;;;;;11.87;8.57;;;14.20;99.90;;;;;;4939465;28;20197;-77
2022/06/05 00:22:09;;;;;;;10.00;7.70;;;14.20;99.90;;;;;;4942682;28;20208;-78
2022/06/05 00:24:53;;;;;;;13.10;8.20;;;14.20;99.90;;;;;;4942342;28;20201;-75
2022/06/05 00:28:02;;;;;;;12.00;8.60;;;14.10;99.90;;;;;;4938078;29;20206;-76
2022/06/05 00:31:15;;;;;;;11.53;8.10;;;14.00;99.90;;;;;;4946608;28;20182;-77
2022/06/05 00:33:59;;;;;;;9.73;7.70;;;14.00;99.90;;;;;;4941785;28;20270;-77
2022/06/05 00:36:57;;;;;;;10.73;8.03;;;14.00;99.90;;;;;;4938723;29;20214;-77
2022/06/05 00:39:54;;;;;;;14.73;8.93;;;14.00;99.90;;;;;;4934063;29;20198;-76
2022/06/05 00:42:38;;;;;;;15.27;9.20;;;14.00;99.90;;;;;;4954419;28;20254;-77
2022/06/05 00:45:26;;;;;;;13.43;8.30;;;14.00;99.90;;;;;;4946724;28;20621;-78
2022/06/05 00:48:11;;;;;;;14.87;8.53;;;14.00;99.90;;;;;;4942155;28;20207;-76
2022/06/05 00:50:56;;;;;;;11.13;8.93;;;13.90;99.90;;;;;;4937603;28;20206;-77
2022/06/05 00:53:40;;;;;;;12.13;8.83;;;13.90;99.90;;;;;;4937154;29;20213;-75
2022/06/05 00:56:24;;;;;;;11.47;8.93;;;13.90;99.90;;;;;;4934977;28;20193;-76
2022/06/05 00:59:12;;;;;;;12.07;8.60;;;13.90;99.90;;;;;;4937394;28;20233;-77
2022/06/05 01:01:57;;;;;;;12.77;8.80;;;13.80;99.90;;;;;;4936241;28;20221;-76
2022/06/05 01:04:46;;;;;;;11.43;8.37;;;13.80;99.90;;;;;;4942164;29;20200;-77
2022/06/05 01:07:30;;;;;;;11.10;8.63;;;13.70;99.90;;;;;;4948151;28;20194;-77
2022/06/05 01:10:17;;;;;;;9.73;8.13;;;13.70;99.90;;;;;;4964930;28;20243;-79
2022/06/05 01:13:38;;;;;;;13.53;8.77;;;13.70;99.90;;;;;;4943245;28;20210;-77
2022/06/05 01:16:33;;;;;;;9.50;8.23;;;13.70;99.90;;;;;;4950172;28;20182;-76
2022/06/05 01:19:40;;;;;;;10.13;7.70;;;13.60;99.90;;;;;;4937872;28;20202;-77
2022/06/05 01:22:38;;;;;;;13.43;8.43;;;13.60;99.90;;;;;;4936068;28;20249;-77
2022/06/05 01:25:56;;;;;;;13.73;9.03;;;13.60;99.90;;;;;;4954907;28;20198;-76
2022/06/05 01:28:54;;;;;;;12.10;8.57;;;13.60;99.90;;;;;;4938531;29;20197;-76
2022/06/05 01:31:46;;;;;;;13.23;8.93;;;13.60;99.90;;;;;;4937792;28;20221;-77
2022/06/05 01:34:57;;;;;;;15.83;9.27;;;13.50;99.90;;;;;;4954333;28;20186;-77
2022/06/05 01:37:49;;;;;;;15.37;8.93;;;13.50;99.90;;;;;;4935268;29;20216;-78
2022/06/05 01:40:45;;;;;;;11.03;7.97;;;13.50;99.90;;;;;;4940460;28;20186;-78
2022/06/05 01:43:34;;;;;;;12.37;8.60;;;13.50;99.90;;;;;;4949431;28;20210;-78
2022/06/05 01:46:21;;;;;;;12.67;8.47;;;13.50;99.90;;;;;;4935615;28;20217;-78
2022/06/05 01:49:09;;;;;;;12.40;8.67;;;13.40;99.90;;;;;;4950235;28;20197;-77
2022/06/05 01:52:01;;;;;;;12.10;8.83;;;13.40;99.90;;;;;;4944324;28;20237;-78
2022/06/05 01:54:53;;;;;;;10.27;8.17;;;13.40;99.90;;;;;;4934432;28;20247;-76
2022/06/05 01:57:38;;;;;;;11.43;8.93;;;13.40;99.90;;;;;;4932855;29;20323;-78
2022/06/05 02:00:23;;;;;;;12.57;8.70;;;13.40;99.90;;;;;;4937146;28;20203;-78
2022/06/05 02:03:17;;;;;;;13.30;8.80;;;13.30;99.90;;;;;;4936209;28;20206;-77
2022/06/05 02:06:07;;;;;;;14.87;8.70;;;13.40;99.90;;;;;;4951987;28;20278;-76
2022/06/05 02:08:56;;;;;;;11.90;8.37;;;13.40;99.90;;;;;;4939825;29;20197;-76
2022/06/05 02:11:41;;;;;;;11.77;9.60;;;13.40;99.90;;;;;;4930339;29;20229;-76
2022/06/05 02:14:25;;;;;;;10.77;8.43;;;13.30;99.90;;;;;;4931222;28;20190;-77
2022/06/05 02:17:10;;;;;;;13.37;8.60;;;13.40;99.90;;;;;;4933586;28;20205;-77
2022/06/05 02:19:55;;;;;;;13.63;9.17;;;13.30;99.90;;;;;;4929456;28;20233;-77
2022/06/05 02:22:43;;;;;;;10.37;8.90;;;13.30;99.90;;;;;;4938300;28;20217;-80
2022/06/05 02:25:28;;;;;;;9.90;8.00;;;13.30;99.90;;;;;;4940647;28;20219;-77
2022/06/05 02:28:18;;;;;;;11.73;8.60;;;13.20;99.90;;;;;;4937791;28;20233;-78
2022/06/05 02:31:14;;;;;;;10.07;8.33;;;13.20;99.90;;;;;;4931801;28;20312;-75
2022/06/05 02:34:36;;;;;;;11.37;9.13;;;13.20;99.90;;;;;;4933342;28;20222;-76
2022/06/05 02:37:44;;;;;;;17.23;8.87;;;13.20;99.90;;;;;;4930245;28;20185;-76
2022/06/05 02:40:57;;;;;;;10.37;7.97;;;13.20;99.90;;;;;;4951679;28;20186;-77
2022/06/05 02:47:31;;;;;;;12.07;8.37;;;13.20;99.90;;;;;;4955200;28;20289;-77
2022/06/05 02:50:36;;;;;;;13.37;8.77;;;13.20;99.90;;;;;;4936361;28;20310;-77
2022/06/05 02:53:20;;;;;;;9.53;8.10;;;13.20;99.90;;;;;;4946153;28;20265;-75
2022/06/05 02:56:08;;;;;;;10.37;7.93;;;13.20;99.90;;;;;;4934033;28;20232;-78
2022/06/05 02:58:54;;;;;;;14.37;8.03;;;13.10;99.90;;;;;;4943061;29;20194;-77
2022/06/05 03:04:42;;;;;;;13.57;8.80;;;13.10;99.90;;;;;;4948554;28;20214;-77
2022/06/05 03:07:26;;;;;;;11.37;7.77;;;13.00;99.90;;;;;;4933791;28;20198;-78
2022/06/05 03:10:11;;;;;;;11.00;7.90;;;13.00;99.90;;;;;;4935027;28;20246;-78
2022/06/05 03:12:56;;;;;;;10.20;7.70;;;13.00;99.90;;;;;;4951299;28;20573;-77
2022/06/05 03:15:43;;;;;;;9.90;8.00;;;13.00;99.90;;;;;;4935222;29;20215;-78
2022/06/05 03:18:27;;;;;;;10.73;7.80;;;13.00;99.90;;;;;;4946012;28;20709;-78
2022/06/05 03:21:12;;;;;;;10.53;8.23;;;13.00;99.90;;;;;;4932434;28;20217;-76
2022/06/05 03:23:59;;;;;;;12.23;8.27;;;13.00;99.90;;;;;;4937935;28;20257;-78
2022/06/05 03:26:43;;;;;;;13.93;8.30;;;12.90;99.90;;;;;;4936892;29;20202;-79
2022/06/05 03:29:27;;;;;;;13.37;8.87;;;12.90;99.90;;;;;;4947014;28;20197;-76
2022/06/05 03:32:11;;;;;;;9.93;7.90;;;12.90;99.90;;;;;;4956926;28;20213;-76
2022/06/05 03:34:56;;;;;;;12.50;7.90;;;13.00;99.90;;;;;;4954603;28;20266;-78
2022/06/05 03:37:41;;;;;;;10.80;7.50;;;13.00;99.90;;;;;;4936208;28;20197;-79
2022/06/05 03:40:25;;;;;;;9.53;7.37;;;13.00;99.90;;;;;;4944251;28;20186;-77
2022/06/05 03:43:10;;;;;;;14.43;7.90;;;13.00;99.90;;;;;;4935787;28;20238;-76
2022/06/05 03:46:09;;;;;;;9.40;7.57;;;13.00;99.90;;;;;;4936288;28;20652;-77
2022/06/05 03:48:53;;;;;;;11.40;8.53;;;13.00;99.90;;;;;;4950498;28;20215;-77
2022/06/05 03:51:37;;;;;;;11.30;7.90;;;13.00;99.90;;;;;;4933761;28;20274;-77
2022/06/05 03:54:22;;;;;;;12.50;8.00;;;13.10;99.90;;;;;;4935242;28;20194;-76
2022/06/05 03:57:07;;;;;;;9.97;7.80;;;13.10;99.90;;;;;;4949464;28;20195;-78
2022/06/05 03:59:51;;;;;;;10.57;7.87;;;13.10;99.90;;;;;;4952086;28;20213;-77
2022/06/05 04:02:36;;;;;;;8.60;7.43;;;13.10;99.90;;;;;;4939363;28;20322;-79
2022/06/05 04:05:21;;;;;;;8.83;7.63;;;13.10;99.90;;;;;;4937612;28;20278;-78
2022/06/05 04:08:05;;;;;;;12.80;7.60;;;13.10;99.90;;;;;;4935363;28;20242;-78
2022/06/05 04:10:50;;;;;;;10.10;7.33;;;13.20;99.90;;;;;;4950214;28;20242;-77
2022/06/05 04:13:34;;;;;;;11.60;7.67;;;13.20;99.90;;;;;;4937248;28;20218;-78
2022/06/05 04:16:26;;;;;;;11.47;7.93;;;13.20;99.90;;;;;;4939154;28;20206;-77
2022/06/05 04:19:10;;;;;;;9.50;7.13;;;13.20;99.90;;;;;;4953134;28;20187;-77
2022/06/05 04:21:54;;;;;;;8.37;7.33;;;13.20;99.90;;;;;;4938820;28;20238;-77
2022/06/05 04:24:38;;;;;;;8.77;6.90;;;13.30;99.90;;;;;;4936241;29;20190;-76
2022/06/05 04:27:22;;;;;;;8.50;7.13;;;13.30;99.90;;;;;;4933315;28;20674;-77
2022/06/05 04:30:07;;;;;;;8.50;7.60;;;13.40;99.90;;;;;;4935668;28;20174;-75
2022/06/05 04:32:51;;;;;;;8.30;7.40;;;13.40;99.90;;;;;;4948207;28;20258;-77
2022/06/05 04:35:36;;;;;;;9.20;7.80;;;13.50;99.90;;;;;;4939025;28;20238;-77
2022/06/05 04:38:21;;;;;;;12.37;8.00;;;13.50;99.90;;;;;;4938360;28;20194;-77
2022/06/05 04:41:05;;;;;;;12.97;8.07;;;13.50;99.90;;;;;;4937988;28;20276;-76
2022/06/05 04:43:49;;;;;;;9.80;7.67;;;13.60;99.90;;;;;;4937574;28;20190;-78
2022/06/05 04:46:35;;;;;;;8.07;7.27;;;13.60;99.90;;;;;;4935908;28;20189;-78
2022/06/05 04:49:19;;;;;;;8.37;7.07;;;13.70;99.90;;;;;;4938605;28;20197;-77
2022/06/05 04:52:04;;;;;;;9.57;7.37;;;13.80;99.90;;;;;;4938511;28;20266;-78
2022/06/05 04:54:48;;;;;;;10.70;8.30;;;13.80;99.90;;;;;;4936430;29;20258;-77
2022/06/05 04:57:34;;;;;;;9.40;7.60;;;13.90;99.90;;;;;;4937479;28;20198;-78
2022/06/05 05:00:18;;;;;;;8.70;7.23;;;13.90;99.90;;;;;;4937508;28;20283;-77
2022/06/05 05:03:03;;;;;;;8.10;7.30;;;13.90;99.90;;;;;;4937548;28;20597;-78
2022/06/05 05:05:47;;;;;;;9.70;7.70;;;13.90;99.90;;;;;;4938902;29;20190;-78
2022/06/05 05:08:32;;;;;;;8.70;7.47;;;14.00;99.90;;;;;;4933714;28;20189;-77
2022/06/05 05:11:17;;;;;;;9.03;7.10;;;14.10;99.90;;;;;;4933315;28;20245;-78
2022/06/05 05:14:02;;;;;;;8.20;7.03;;;14.20;99.90;;;;;;4939071;28;20285;-78
2022/06/05 05:16:46;;;;;;;8.77;7.00;;;14.30;99.90;;;;;;4936339;29;20194;-77
2022/06/05 05:19:30;;;;;;;7.13;6.43;;;14.30;99.90;;;;;;4938345;28;20225;-78
2022/06/05 05:22:14;;;;;;;9.03;6.80;;;14.40;99.90;;;;;;4933757;28;20288;-77
2022/06/05 05:24:58;;;;;;;9.30;6.50;;;14.50;99.90;;;;;;4933805;28;20199;-77
2022/06/05 05:27:42;;;;;;;7.13;6.13;;;14.60;99.90;;;;;;4937578;29;20218;-75
2022/06/05 05:30:26;;;;;;;9.13;7.00;;;14.70;99.90;;;;;;4938018;28;20210;-77
2022/06/05 05:33:12;;;;;;;7.17;6.00;;;14.70;99.90;;;;;;4939624;28;20205;-76
2022/06/05 05:35:57;;;;;;;7.87;6.70;;;14.90;99.90;;;;;;4933448;28;20177;-77
2022/06/05 05:42:04;;;;;;;8.32;7.10;;;15.00;99.90;;;;;;4932674;29;20405;-77
2022/06/05 05:42:08;;;;;;;6.80;6.10;;;15.00;99.90;;;;;;4949984;28;20225;-76
2022/06/05 05:44:51;;;;;;;8.37;6.00;;;15.10;99.90;;;;;;4947265;28;20239;-77
2022/06/05 05:47:35;;;;;;;6.33;5.80;;;15.30;99.90;;;;;;4932778;28;20223;-76
2022/06/05 05:50:19;;;;;;;6.80;6.10;;;15.30;99.90;;;;;;4938364;28;20194;-77
2022/06/05 05:53:03;;;;;;;8.97;6.17;;;15.40;99.90;;;;;;4949311;28;20210;-77
2022/06/05 05:55:48;;;;;;;7.47;6.03;;;15.40;99.90;;;;;;4930690;29;20190;-76
2022/06/05 05:58:32;;;;;;;7.23;5.83;;;15.50;99.90;;;;;;4940058;28;20256;-77
2022/06/05 06:01:16;;;;;;;7.00;5.47;;;15.60;99.90;;;;;;4941378;28;20218;-77
2022/06/05 06:04:00;;;;;;;6.60;5.80;;;15.70;99.90;;;;;;4945414;28;20224;-75
2022/06/05 06:06:49;;;;;;;6.17;5.50;;;15.70;99.90;;;;;;4934228;28;20218;-78
2022/06/05 06:09:34;;;;;;;7.83;5.67;;;15.80;99.90;;;;;;4933397;28;20190;-77
2022/06/05 06:12:18;;;;;;;7.27;5.77;;;15.90;99.90;;;;;;4942278;28;20221;-77
2022/06/05 06:15:03;;;;;;;6.50;5.67;;;15.90;99.90;;;;;;4946594;28;20190;-77
2022/06/05 06:17:47;;;;;;;6.00;5.40;;;16.00;99.90;;;;;;4942202;28;20615;-77
2022/06/05 06:20:31;;;;;;;6.37;5.80;;;16.00;99.90;;;;;;4933817;28;20201;-77
2022/06/05 06:23:16;;;;;;;7.50;5.60;;;16.00;99.90;;;;;;4937180;28;20198;-77
2022/06/05 06:26:05;;;;;;;6.20;5.37;;;16.10;99.90;;;;;;4952177;28;20194;-77
2022/06/05 06:28:49;;;;;;;6.03;5.43;;;16.20;99.90;;;;;;4945166;28;20278;-77
2022/06/05 06:31:34;;;;;;;5.43;4.93;;;16.40;99.90;;;;;;4930134;28;20229;-77
2022/06/05 06:34:19;;;;;;;8.60;5.60;;;16.50;99.90;;;;;;4936807;28;20249;-77
2022/06/05 06:37:03;;;;;;;6.87;5.70;;;16.50;99.90;;;;;;4933371;28;20186;-77
2022/06/05 06:39:47;;;;;;;10.53;5.17;;;16.60;99.90;;;;;;4930619;28;20186;-77
2022/06/05 06:42:31;;;;;;;6.50;5.30;;;16.70;99.90;;;;;;4938354;28;20218;-76
2022/06/05 06:45:15;;;;;;;8.60;5.43;;;16.80;99.90;;;;;;4944967;28;20191;-76
2022/06/05 06:47:59;;;;;;;8.80;5.63;;;16.90;99.90;;;;;;4947165;28;20612;-77
2022/06/05 06:50:45;;;;;;;5.67;4.97;;;17.00;99.90;;;;;;4937519;28;20190;-77
2022/06/05 06:53:30;;;;;;;5.00;4.50;;;17.10;99.90;;;;;;4953793;28;20690;-77
2022/06/05 06:56:21;;;;;;;7.87;5.47;;;17.20;99.90;;;;;;4935703;28;20206;-76
2022/06/05 06:59:06;;;;;;;5.10;4.70;;;17.30;99.90;;;;;;4938445;28;20193;-76
2022/06/05 07:01:50;;;;;;;5.37;4.87;;;17.40;99.90;;;;;;4935914;29;20262;-76
2022/06/05 07:04:34;;;;;;;7.80;5.53;;;17.50;99.90;;;;;;4937887;28;20406;-75
2022/06/05 07:07:18;;;;;;;7.63;4.60;;;17.70;99.90;;;;;;4956680;28;20221;-76
2022/06/05 07:10:04;;;;;;;6.93;4.60;;;17.80;99.90;;;;;;4941669;28;20303;-76
2022/06/05 07:12:49;;;;;;;9.43;4.60;;;17.90;99.90;;;;;;4949465;28;20297;-76
2022/06/05 07:15:35;;;;;;;5.10;4.60;;;18.10;99.90;;;;;;4938813;28;20186;-76
2022/06/05 07:18:20;;;;;;;7.00;5.53;;;18.10;99.90;;;;;;4949914;28;20276;-76
2022/06/05 07:21:13;;;;;;;6.10;4.70;;;18.20;99.90;;;;;;4943374;28;20214;-77
2022/06/05 07:23:58;;;;;;;6.97;4.53;;;18.30;99.90;;;;;;4940328;28;20241;-76
2022/06/05 07:26:44;;;;;;;5.07;4.37;;;18.40;99.90;;;;;;4943931;29;20194;-76
2022/06/05 07:29:28;;;;;;;5.47;4.53;;;18.50;99.90;;;;;;4933890;28;20193;-76
2022/06/05 07:32:13;;;;;;;4.27;3.87;;;18.60;99.90;;;;;;4950619;28;20258;-76
2022/06/05 07:34:57;;;;;;;5.00;4.50;;;18.70;99.90;;;;;;4953340;28;20186;-76
2022/06/05 07:37:43;;;;;;;5.90;4.40;;;18.80;99.90;;;;;;4935025;28;20722;-77
2022/06/05 07:40:27;;;;;;;6.30;4.50;;;18.90;99.90;;;;;;4930871;28;20187;-77
2022/06/05 07:43:11;;;;;;;4.82;4.35;;;19.10;99.90;;;;;;4928998;28;20194;-76
2022/06/05 07:45:57;;;;;;;5.25;4.75;;;19.20;99.90;;;;;;4951628;28;20215;-77
2022/06/05 07:48:41;;;;;;;4.97;4.47;;;19.20;99.90;;;;;;4938010;28;20186;-76
2022/06/05 07:54:34;;;;;;;5.15;4.32;;;19.50;99.90;;;;;;4953948;28;20669;-76
2022/06/05 07:57:18;;;;;;;4.85;4.35;;;19.60;99.90;;;;;;4932127;28;20186;-77
2022/06/05 08:00:07;;;;;;;7.13;4.35;;;19.70;99.90;;;;;;4945791;28;20577;-76
2022/06/05 08:02:51;;;;;;;4.78;3.85;;;19.70;99.90;;;;;;4952856;28;20229;-77
2022/06/05 08:05:35;;;;;;;6.50;4.75;;;19.80;99.90;;;;;;4934292;28;20198;-77
2022/06/05 08:08:19;;;;;;;5.88;4.40;;;19.90;99.90;;;;;;4945665;28;20275;-76
2022/06/05 08:11:04;;;;;;;5.70;4.70;;;20.00;99.90;;;;;;4933776;28;20217;-77
2022/06/05 08:13:48;;;;;;;6.97;4.50;;;20.10;99.90;;;;;;4942344;28;20229;-76
2022/06/05 08:16:32;;;;;;;6.32;4.25;;;20.10;99.90;;;;;;4933811;28;20186;-76
2022/06/05 08:19:20;;;;;;;4.65;4.28;;;20.20;99.90;;;;;;4949933;28;20193;-77
2022/06/05 08:22:05;;;;;;;5.88;4.18;;;20.30;99.90;;;;;;4932218;28;20261;-77
2022/06/05 08:24:50;;;;;;;5.28;4.25;;;20.30;99.90;;;;;;4932152;29;20209;-77
2022/06/05 08:27:34;;;;;;;5.97;4.32;;;20.40;99.90;;;;;;4934552;28;20249;-77
2022/06/05 08:30:19;;;;;;;4.90;4.20;;;20.50;99.90;;;;;;4938111;28;20221;-77
2022/06/05 08:33:03;;;;;;;5.28;4.00;;;20.60;99.90;;;;;;4938803;28;20269;-77
2022/06/05 08:35:49;;;;;;;5.10;4.60;;;20.60;99.90;;;;;;4933409;29;20245;-77
2022/06/05 08:41:57;;;;;;;5.28;4.28;;;20.80;99.90;;;;;;4943826;28;20272;-77
2022/06/05 08:44:55;;;;;;;7.63;4.25;;;20.80;99.90;;;;;;4938599;28;20678;-77
2022/06/05 08:47:53;;;;;;;6.78;4.15;;;20.90;99.90;;;;;;4934426;29;20662;-76
2022/06/05 08:50:46;;;;;;;4.68;4.20;;;21.00;99.90;;;;;;4933996;28;20198;-76
2022/06/05 08:53:56;;;;;;;7.70;4.70;;;21.10;99.90;;;;;;4941356;28;20244;-76
2022/06/05 08:56:47;;;;;;;4.63;4.22;;;21.20;99.90;;;;;;4933792;29;20215;-75
2022/06/05 08:59:48;;;;;;;4.88;4.38;;;21.30;99.90;;;;;;4930174;28;20198;-76
2022/06/05 09:02:54;;;;;;;5.07;4.68;;;21.40;99.90;;;;;;4941669;28;20225;-76
2022/06/05 09:05:45;;;;;;;5.28;4.07;;;21.50;99.90;;;;;;4936401;28;20214;-76
2022/06/05 09:08:33;;;;;;;4.80;4.40;;;21.60;99.90;;;;;;4939666;28;20671;-75
2022/06/05 09:11:36;;;;;;;7.45;3.85;;;21.60;99.90;;;;;;4940199;28;20216;-75
2022/06/05 09:14:28;;;;;;;4.43;4.10;;;21.60;99.90;;;;;;4939675;28;20214;-75
2022/06/05 09:17:16;;;;;;;6.40;4.10;;;21.70;99.90;;;;;;4949642;28;20202;-76
2022/06/05 09:20:01;;;;;;;6.47;5.03;;;21.70;99.90;;;;;;4930484;28;20254;-77
2022/06/05 09:22:54;;;;;;;4.15;3.75;;;21.80;99.90;;;;;;4935122;28;20213;-76
2022/06/05 09:26:00;;;;;;;4.75;4.13;;;21.80;99.90;;;;;;4952456;28;20330;-76
2022/06/05 09:29:11;;;;;;;5.43;4.90;;;21.90;99.90;;;;;;4946407;28;20190;-76
2022/06/05 09:32:42;;;;;;;4.72;4.30;;;22.00;99.90;;;;;;4939126;28;20255;-76
2022/06/05 09:35:35;;;;;;;5.63;4.10;;;22.00;99.90;;;;;;4952044;28;20221;-76
2022/06/05 09:38:27;;;;;;;4.28;3.55;;;22.10;99.90;;;;;;4941626;28;20201;-77
2022/06/05 09:41:11;;;;;;;4.82;4.30;;;22.10;99.90;;;;;;4949048;28;20233;-76
2022/06/05 09:44:20;;;;;;;4.63;3.78;;;22.10;99.90;;;;;;4942223;28;20186;-76
2022/06/05 09:47:21;;;;;;;4.63;4.15;;;22.20;99.90;;;;;;4933207;28;20198;-77
2022/06/05 09:50:18;;;;;;;5.70;4.00;;;22.20;99.90;;;;;;4957202;28;20263;-76
2022/06/05 09:53:02;;;;;;;6.15;4.15;;;22.30;99.90;;;;;;4949124;28;20721;-77
2022/06/05 09:56:27;;;;;;;5.75;4.22;;;22.30;99.90;;;;;;4935626;28;20257;-77
2022/06/05 09:59:23;;;;;;;6.90;4.47;;;22.30;99.90;;;;;;4934756;28;20238;-76
2022/06/05 10:02:08;;;;;;;5.97;4.10;;;22.40;99.90;;;;;;4929096;28;20729;-76
2022/06/05 10:04:52;;;;;;;4.78;4.28;;;22.40;99.90;;;;;;4937749;28;20233;-76
2022/06/05 10:07:45;;;;;;;4.53;4.13;;;22.50;99.90;;;;;;4939330;28;20248;-78
2022/06/05 10:10:37;;;;;;;4.00;3.60;;;22.50;99.90;;;;;;4941456;28;20270;-78
2022/06/05 10:13:50;;;;;;;5.35;4.03;;;22.60;99.90;;;;;;4938868;28;20222;-77
2022/06/05 10:17:02;;;;;;;6.55;3.75;;;22.60;99.90;;;;;;4939724;28;20252;-77
2022/06/05 10:20:04;;;;;;;4.13;3.83;;;22.70;99.90;;;;;;4946053;28;20217;-77
2022/06/05 10:23:07;;;;;;;4.18;3.75;;;22.70;99.90;;;;;;4951834;28;20244;-77
2022/06/05 10:26:07;;;;;;;5.63;3.50;;;22.80;99.90;;;;;;4952326;28;20197;-77
2022/06/05 10:28:53;;;;;;;5.32;3.63;;;22.90;99.90;;;;;;4951174;28;20191;-77
2022/06/05 10:31:46;;;;;;;4.82;3.38;;;23.00;99.90;;;;;;4952297;28;20265;-77
2022/06/05 10:34:49;;;;;;;4.30;3.90;;;23.10;99.90;;;;;;4948924;28;20221;-78
2022/06/05 10:37:49;;;;;;;4.10;3.47;;;23.20;99.90;;;;;;4946847;28;20193;-77
2022/06/05 10:40:45;;;;;;;6.15;3.50;;;23.20;99.90;;;;;;4933025;28;20254;-77
2022/06/05 10:43:32;;;;;;;4.47;3.30;;;23.40;99.90;;;;;;4948552;28;20245;-77
2022/06/05 10:46:24;;;;;;;4.53;3.75;;;23.40;99.90;;;;;;4951845;28;20297;-77
2022/06/05 10:49:17;;;;;;;6.40;3.10;;;23.50;99.90;;;;;;4933789;28;20186;-77
2022/06/05 10:52:15;;;;;;;3.38;3.08;;;23.50;99.90;;;;;;4943477;28;20693;-77
2022/06/05 10:55:31;;;;;;;5.63;3.60;;;23.60;99.90;;;;;;4947188;28;20209;-77
2022/06/05 10:58:22;;;;;;;4.20;3.30;;;23.70;99.90;;;;;;4949543;28;20261;-78
2022/06/05 11:01:31;;;;;;;5.63;4.15;;;23.70;99.90;;;;;;4928565;28;20213;-77
2022/06/05 11:04:22;;;;;;;6.35;3.60;;;23.80;99.90;;;;;;4948504;28;20206;-77
2022/06/05 11:07:36;;;;;;;4.00;3.58;;;23.80;99.90;;;;;;4946494;28;20202;-78
2022/06/05 11:14:20;;;;;;;3.38;3.05;;;23.90;99.90;;;;;;4951980;28;20274;-78
2022/06/05 11:17:25;;;;;;;3.70;3.40;;;24.00;99.90;;;;;;4947439;28;20194;-77
2022/06/05 11:20:15;;;;;;;5.60;3.75;;;24.10;99.90;;;;;;4928565;28;20352;-77
2022/06/05 11:23:09;;;;;;;5.07;3.38;;;24.10;99.90;;;;;;4939902;28;20198;-77
2022/06/05 11:26:04;;;;;;;6.90;3.67;;;24.20;99.90;;;;;;4948217;28;20283;-77
2022/06/05 11:29:21;;;;;;;5.75;3.33;;;24.40;99.90;;;;;;4935919;28;20209;-77
2022/06/05 11:32:33;;;;;;;4.70;3.17;;;24.50;99.90;;;;;;4928870;28;20226;-77
2022/06/05 11:35:53;;;;;;;5.43;3.22;;;24.60;99.90;;;;;;4947351;28;20682;-77
2022/06/05 11:39:03;;;;;;;3.80;3.40;;;24.70;99.90;;;;;;4946218;28;20242;-76
2022/06/05 11:42:01;;;;;;;3.83;3.40;;;24.80;99.90;;;;;;4950200;28;20249;-79
2022/06/05 11:45:04;;;;;;;3.63;3.28;;;24.80;99.90;;;;;;4934827;29;20193;-77
2022/06/05 11:48:02;;;;;;;4.47;3.47;;;24.80;99.90;;;;;;4958117;28;20221;-77
2022/06/05 11:51:19;;;;;;;3.38;3.08;;;24.90;99.90;;;;;;4935831;28;20193;-78
2022/06/05 11:54:19;;;;;;;5.47;3.35;;;24.90;99.90;;;;;;4934107;28;20258;-77
2022/06/05 11:57:16;;;;;;;3.15;2.85;;;24.80;99.90;;;;;;4950959;28;20190;-78
2022/06/05 12:00:12;;;;;;;9.38;3.63;;;24.70;99.90;;;;;;4954823;28;20618;-78
2022/06/05 12:03:19;;;;;;;5.45;3.83;;;24.80;99.90;;;;;;4953192;28;20273;-78
2022/06/05 12:06:39;;;;;;;3.50;3.22;;;24.80;99.90;;;;;;4956069;28;20189;-77
2022/06/05 12:09:26;;;;;;;3.47;3.17;;;24.80;99.90;;;;;;4979079;28;20222;-79
2022/06/05 12:12:26;;;;;;;4.00;3.13;;;24.80;99.90;;;;;;4943073;28;20382;-79
2022/06/05 12:15:13;;;;;;;4.60;3.15;;;24.90;99.90;;;;;;4955398;28;20194;-78
2022/06/05 12:18:06;;;;;;;8.45;3.60;;;24.90;99.90;;;;;;4952394;28;20187;-78
2022/06/05 12:20:53;;;;;;;4.15;3.17;;;24.90;99.90;;;;;;4940828;28;20210;-78
2022/06/05 12:23:47;;;;;;;4.10;3.17;;;24.90;99.90;;;;;;4952998;28;20243;-79
2022/06/05 12:26:56;;;;;;;5.00;3.58;;;24.90;99.90;;;;;;4937779;28;20202;-79
2022/06/05 12:29:44;;;;;;;4.50;3.28;;;24.80;99.90;;;;;;4947669;28;20401;-77
2022/06/05 12:32:47;;;;;;;4.68;3.20;;;24.80;99.90;;;;;;4953159;28;20229;-79
2022/06/05 12:35:37;;;;;;;4.72;3.50;;;24.70;99.90;;;;;;4956637;28;20282;-79
2022/06/05 12:38:38;;;;;;;3.50;3.17;;;24.70;99.90;;;;;;4961200;28;20275;-78
2022/06/05 12:41:53;;;;;;;5.57;3.10;;;24.60;99.90;;;;;;4954750;28;20580;-79
2022/06/05 12:44:51;;;;;;;4.82;3.10;;;24.60;99.90;;;;;;4910084;29;20693;-78
2022/06/05 12:47:57;;;;;;;5.90;3.40;;;24.60;99.90;;;;;;4935293;28;20225;-79
2022/06/05 12:51:12;;;;;;;3.30;3.00;;;24.60;99.90;;;;;;4952431;28;20189;-78
2022/06/05 12:54:29;;;;;;;3.85;3.28;;;24.50;99.90;;;;;;4949095;28;20222;-78
2022/06/05 12:57:21;;;;;;;4.28;3.50;;;24.50;99.90;;;;;;4948360;28;20198;-79
2022/06/05 13:00:18;;;;;;;5.13;3.42;;;24.50;99.90;;;;;;4953378;28;20320;-79
2022/06/05 13:03:24;;;;;;;5.28;3.28;;;24.40;99.90;;;;;;4946579;28;20186;-79
2022/06/05 13:06:22;;;;;;;4.35;2.97;;;24.50;99.90;;;;;;4935145;28;20693;-78
2022/06/05 13:09:18;;;;;;;5.20;3.30;;;24.40;99.90;;;;;;4947588;28;20283;-79
2022/06/05 13:12:20;;;;;;;3.95;3.10;;;24.30;99.90;;;;;;4957626;28;20217;-78
2022/06/05 13:15:27;;;;;;;3.70;3.40;;;24.40;99.90;;;;;;4938103;28;20265;-76
2022/06/05 13:18:22;;;;;;;3.30;3.00;;;24.30;99.90;;;;;;4947635;28;20202;-77
2022/06/05 13:21:28;;;;;;;4.30;2.88;;;24.30;99.90;;;;;;4936137;28;20277;-77
2022/06/05 13:24:36;;;;;;;4.18;3.50;;;24.30;99.90;;;;;;4935892;28;20189;-77
2022/06/05 13:27:35;;;;;;;4.20;3.40;;;24.30;99.90;;;;;;4935287;28;20263;-78
2022/06/05 13:30:23;;;;;;;3.70;3.40;;;24.20;99.90;;;;;;4958809;28;20197;-78
2022/06/05 13:33:36;;;;;;;3.75;3.45;;;24.20;99.90;;;;;;4947251;28;20230;-77
2022/06/05 13:36:29;;;;;;;5.40;3.80;;;24.20;99.90;;;;;;4937066;28;20225;-78
2022/06/05 13:39:26;;;;;;;5.63;3.90;;;24.20;99.90;;;;;;4956632;28;20230;-78
2022/06/05 13:42:15;;;;;;;4.13;3.58;;;24.10;99.90;;;;;;4934300;28;20222;-78
2022/06/05 13:45:02;;;;;;;5.15;4.50;;;24.10;99.90;;;;;;4939082;28;20191;-79
2022/06/05 13:47:57;;;;;;;4.75;4.35;;;23.90;99.90;;;;;;4935800;29;20182;-76
2022/06/05 13:51:00;;;;;;;5.22;4.00;;;23.90;99.90;;;;;;4944047;28;20225;-79
2022/06/05 13:53:52;;;;;;;4.60;4.10;;;23.80;99.90;;;;;;4949203;28;20278;-77
2022/06/05 13:56:50;;;;;;;6.28;4.13;;;23.60;99.90;;;;;;4938988;28;20225;-80
2022/06/05 13:59:49;;;;;;;5.82;4.45;;;23.50;99.90;;;;;;4950630;28;20218;-78
2022/06/05 14:02:39;;;;;;;5.85;4.38;;;23.40;99.90;;;;;;4955099;28;20744;-78
2022/06/05 14:05:33;;;;;;;8.35;4.57;;;23.30;99.90;;;;;;4950957;28;20761;-77
2022/06/05 14:08:28;;;;;;;6.15;5.00;;;23.10;99.90;;;;;;4929987;28;20198;-78
2022/06/05 14:11:12;;;;;;;5.32;4.75;;;23.00;99.90;;;;;;4945209;28;20278;-76
2022/06/05 14:13:56;;;;;;;7.18;5.45;;;22.90;99.90;;;;;;4938004;28;20218;-77
2022/06/05 14:16:47;;;;;;;5.72;5.22;;;22.80;99.90;;;;;;4933572;29;20210;-77
2022/06/05 14:19:37;;;;;;;5.88;5.25;;;22.70;99.90;;;;;;4946755;28;20223;-76
2022/06/05 14:22:28;;;;;;;6.07;5.50;;;22.60;99.90;;;;;;4934009;28;20225;-77
2022/06/05 14:25:40;;;;;;;6.53;5.93;;;22.50;99.90;;;;;;4934262;28;20220;-77
2022/06/05 14:28:40;;;;;;;7.65;5.88;;;22.40;99.90;;;;;;4937537;28;20283;-78
2022/06/05 14:31:35;;;;;;;7.75;6.03;;;22.20;99.90;;;;;;4939397;28;20232;-77
2022/06/05 14:34:21;;;;;;;7.88;6.93;;;22.10;99.90;;;;;;4947878;28;20347;-76
2022/06/05 14:37:16;;;;;;;7.13;6.43;;;22.00;99.90;;;;;;4934172;28;20267;-78
2022/06/05 14:40:05;;;;;;;7.60;6.80;;;21.90;99.90;;;;;;4936577;28;20202;-76
2022/06/05 14:43:14;;;;;;;6.85;6.25;;;21.90;99.90;;;;;;4933520;29;20221;-76
2022/06/05 14:46:25;;;;;;;7.05;6.28;;;21.90;99.90;;;;;;4944948;28;20206;-75
2022/06/05 14:49:28;;;;;;;9.68;6.95;;;21.80;99.90;;;;;;4906777;28;20715;-75
2022/06/05 14:52:31;;;;;;;7.50;6.70;;;21.80;99.90;;;;;;4943663;28;20235;-75
2022/06/05 14:58:57;;;;;;;8.20;7.50;;;21.60;99.90;;;;;;4942546;28;20198;-75
2022/06/05 15:02:04;;;;;;;8.23;7.43;;;21.60;99.90;;;;;;4931052;29;20214;-75
2022/06/05 15:05:13;;;;;;;8.65;7.72;;;21.50;99.90;;;;;;4926296;29;20653;-74
2022/06/05 15:08:29;;;;;;;8.75;8.05;;;21.50;99.90;;;;;;4942914;28;20210;-74
2022/06/05 15:11:42;;;;;;;9.05;7.00;;;21.40;99.90;;;;;;4941952;28;20282;-75
2022/06/05 15:14:43;;;;;;;8.20;7.50;;;21.30;99.90;;;;;;4935254;28;20218;-74
2022/06/05 15:17:37;;;;;;;9.10;8.30;;;21.30;99.90;;;;;;4931190;28;20250;-74